This is the latest recevied weather packets stored in our database for station/object N5ATR. If no packets are shown the sender has not sent any weather packets the latest 10 day(s).
| Time | Temp. | Humidity | Pressure | Rain* | Wind** | Luminosity | Snow |
|---|---|---|---|---|---|---|---|
| 1788388546 | 27.78° C | 29% | 1022.2 hPa | 0 mm | - | 418 W/m² | - |
| 1788388245 | 27.78° C | 29% | 1022.2 hPa | 0 mm | - | 424 W/m² | - |
| 1788387944 | 27.78° C | 30% | 1022.2 hPa | 0 mm | - | 65 W/m² | - |
| 1788387643 | 27.78° C | 29% | 1022.5 hPa | 0 mm | - | 89 W/m² | - |
| 1788387338 | 26.67° C | 31% | 1022.2 hPa | 0 mm | - | 102 W/m² | - |
| 1788387034 | 27.78° C | 28% | 1022 hPa | 0 mm | - | 453 W/m² | - |
| 1788386729 | 26.67° C | 27% | 1022.4 hPa | 0 mm | - | 478 W/m² | - |
| 1788386429 | 27.22° C | 31% | 1022.4 hPa | 0 mm | - | 58 W/m² | - |
| 1788386125 | 28.33° C | 29% | 1022.4 hPa | 0 mm | - | 479 W/m² | - |
| 1788385820 | 28.33° C | 29% | 1022.4 hPa | 0 mm | - | 496 W/m² | - |
| 1788385520 | 28.89° C | 29% | 1022.5 hPa | 0 mm | - | 525 W/m² | - |
| 1788385219 | 27.78° C | 29% | 1022.4 hPa | 0 mm | - | 517 W/m² | - |
| 1788384915 | 27.78° C | 30% | 1022.6 hPa | 0 mm | - | 389 W/m² | - |
| 1788384614 | 28.89° C | 29% | 1022.5 hPa | 0 mm | - | 529 W/m² | - |
| 1788384310 | 28.89° C | 30% | 1022.9 hPa | 0 mm | - | 557 W/m² | - |
| 1788384006 | 28.33° C | 30% | 1022.6 hPa | 0 mm | - | 574 W/m² | - |
| 1788383702 | 28.33° C | 30% | 1022.9 hPa | 0 mm | - | 591 W/m² | - |
| 1788383396 | 28.33° C | 31% | 1022.8 hPa | 0 mm | - | 634 W/m² | - |
| 1788383091 | 27.78° C | 30% | 1023 hPa | 0 mm | - | 684 W/m² | - |
| 1788382789 | 27.78° C | 31% | 1022.8 hPa | 0 mm | - | 160 W/m² | - |
| 1788382484 | 26.67° C | 32% | 1023.3 hPa | 0 mm | - | 722 W/m² | - |
| 1788382180 | 27.22° C | 32% | 1023.1 hPa | 0 mm | - | 155 W/m² | - |
| 1788381879 | 26.67° C | 31% | 1023 hPa | 0 mm | - | 645 W/m² | - |
| 1788381575 | 27.78° C | 32% | 1022.9 hPa | 0 mm | - | 255 W/m² | - |
| 1788381270 | 27.78° C | 32% | 1023 hPa | 0 mm | - | 178 W/m² | - |
* Rain latest hour (hover to see other rain measurements)
** Current wind speed in m/s (hover to see current wind gust speed)